createdAt,value
2018-04-04T00:00:12.163Z,4.00
2018-04-04T00:02:41.268Z,4.00
2018-04-04T00:05:10.338Z,4.33
2018-04-04T00:07:39.411Z,3.63
2018-04-04T00:10:08.533Z,4.40
2018-04-04T00:12:37.703Z,4.23
2018-04-04T00:15:06.778Z,4.17
2018-04-04T00:17:36.650Z,4.23
2018-04-04T00:20:05.726Z,4.30
2018-04-04T00:22:35.000Z,3.90
2018-04-04T00:25:04.113Z,4.23
2018-04-04T00:27:33.698Z,3.87
2018-04-04T00:30:02.848Z,4.13
2018-04-04T00:32:31.914Z,3.83
2018-04-04T00:35:00.986Z,4.47
2018-04-04T00:37:30.062Z,3.53
2018-04-04T00:39:59.138Z,4.93
2018-04-04T00:42:28.240Z,4.83
2018-04-04T00:44:57.414Z,4.17
2018-04-04T00:47:26.493Z,4.40
2018-04-04T00:49:55.562Z,4.30
2018-04-04T00:52:25.458Z,5.07
2018-04-04T00:54:54.540Z,3.90
2018-04-04T00:57:23.731Z,4.20
2018-04-04T00:59:52.808Z,4.82
2018-04-04T01:02:22.651Z,4.65
2018-04-04T01:04:52.537Z,4.32
2018-04-04T01:07:21.605Z,4.30
2018-04-04T01:09:50.891Z,5.00
2018-04-04T01:12:19.962Z,4.90
2018-04-04T01:14:49.035Z,4.03
2018-04-04T01:17:18.106Z,4.63
2018-04-04T01:19:47.178Z,4.97
2018-04-04T01:22:16.250Z,4.97
2018-04-04T01:24:46.091Z,5.20
2018-04-04T01:27:15.199Z,4.67
2018-04-04T01:29:44.286Z,4.10
2018-04-04T01:32:14.233Z,4.43
2018-04-04T01:34:44.343Z,4.10
2018-04-04T01:37:14.219Z,5.10
2018-04-04T01:39:43.350Z,4.40
2018-04-04T01:42:12.430Z,5.13
2018-04-04T01:44:41.558Z,3.72
2018-04-04T01:47:10.657Z,5.27
2018-04-04T01:49:39.814Z,4.57
2018-04-04T01:52:08.881Z,4.53
2018-04-04T01:54:37.962Z,6.32
2018-04-04T01:57:07.872Z,4.73
2018-04-04T01:59:37.808Z,5.00
2018-04-04T02:02:06.946Z,4.87
2018-04-04T02:04:36.071Z,4.57
2018-04-04T02:07:05.612Z,4.97
2018-04-04T02:09:34.697Z,4.53
2018-04-04T02:12:03.800Z,5.35
2018-04-04T02:14:32.946Z,5.57
2018-04-04T02:17:02.017Z,5.15
2018-04-04T02:19:31.134Z,4.80
2018-04-04T02:22:00.303Z,4.93
2018-04-04T02:24:29.412Z,5.70
2018-04-04T02:26:58.586Z,5.13
2018-04-04T02:29:27.661Z,5.65
2018-04-04T02:31:57.561Z,5.10
2018-04-04T02:34:26.709Z,5.55
2018-04-04T02:36:55.897Z,4.75
2018-04-04T02:39:24.985Z,5.23
2018-04-04T02:41:54.157Z,5.20
2018-04-04T02:44:23.237Z,5.35
2018-04-04T02:46:52.434Z,5.57
2018-04-04T02:49:21.517Z,5.65
2018-04-04T02:51:50.981Z,5.87
2018-04-04T02:54:20.821Z,5.40
2018-04-04T02:56:49.950Z,4.85
2018-04-04T02:59:19.029Z,5.53
2018-04-04T03:01:48.933Z,5.80
2018-04-04T03:04:18.807Z,5.90
2018-04-04T03:06:49.508Z,6.97
2018-04-04T03:09:18.649Z,4.75
2018-04-04T03:11:48.773Z,6.87
2018-04-04T03:14:18.095Z,5.40
2018-04-04T03:16:48.024Z,6.12
2018-04-04T03:19:17.867Z,5.60
2018-04-04T03:21:46.945Z,7.20
2018-04-04T03:24:18.019Z,7.25
2018-04-04T03:26:47.238Z,5.80
2018-04-04T03:29:16.321Z,5.90
2018-04-04T03:31:45.462Z,5.50
2018-04-04T03:34:14.615Z,6.18
2018-04-04T03:36:43.838Z,5.72
2018-04-04T03:39:12.920Z,5.65
2018-04-04T03:41:41.993Z,5.70
2018-04-04T03:44:11.868Z,6.60
2018-04-04T03:46:40.938Z,5.87
2018-04-04T03:49:10.762Z,5.75
2018-04-04T03:51:41.645Z,5.80
2018-04-04T03:54:10.722Z,6.20
2018-04-04T03:56:40.642Z,6.70
2018-04-04T03:59:10.485Z,6.00
2018-04-04T04:01:40.366Z,6.80
2018-04-04T04:04:09.434Z,6.25
2018-04-04T04:06:39.268Z,6.10
2018-04-04T04:09:08.371Z,6.68
2018-04-04T04:11:39.222Z,6.22
2018-04-04T04:14:08.289Z,6.53
2018-04-04T04:16:37.353Z,6.00
2018-04-04T04:19:06.421Z,6.80
2018-04-04T04:21:37.022Z,5.72
2018-04-04T04:24:06.126Z,6.55
2018-04-04T04:26:35.299Z,6.00
2018-04-04T04:29:04.385Z,6.05
2018-04-04T04:31:33.453Z,6.05
2018-04-04T04:34:02.581Z,6.47
2018-04-04T04:36:31.793Z,5.87
2018-04-04T04:39:00.886Z,6.57
2018-04-04T04:41:29.942Z,6.12
2018-04-04T04:43:59.034Z,6.45
2018-04-04T04:46:28.098Z,5.97
2018-04-04T04:48:57.953Z,6.57
2018-04-04T04:51:28.096Z,5.95
2018-04-04T04:53:57.142Z,7.05
2018-04-04T04:56:26.255Z,7.10
2018-04-04T04:58:55.354Z,8.57
2018-04-04T05:01:24.446Z,7.40
2018-04-04T05:03:53.518Z,6.80
2018-04-04T05:06:22.617Z,7.03
2018-04-04T05:08:52.450Z,7.45
2018-04-04T05:11:21.699Z,7.07
2018-04-04T05:13:51.732Z,7.22
2018-04-04T05:16:20.838Z,7.05
2018-04-04T05:18:49.995Z,7.07
2018-04-04T05:21:19.089Z,6.75
2018-04-04T05:23:48.204Z,6.57
2018-04-04T05:26:17.482Z,7.90
2018-04-04T05:28:46.566Z,6.00
2018-04-04T05:31:15.642Z,6.55
2018-04-04T05:33:44.722Z,6.72
2018-04-04T05:36:13.842Z,6.45
2018-04-04T05:38:42.973Z,6.85
2018-04-04T05:41:12.129Z,7.07
2018-04-04T05:43:41.202Z,6.30
2018-04-04T05:46:11.053Z,7.70
2018-04-04T05:48:40.161Z,7.75
2018-04-04T05:51:09.242Z,6.80
2018-04-04T05:53:38.332Z,8.88
2018-04-04T05:56:07.409Z,7.35
2018-04-04T05:58:36.482Z,7.20
2018-04-04T06:01:06.354Z,7.57
2018-04-04T06:03:35.433Z,6.53
2018-04-04T06:06:05.346Z,6.85
2018-04-04T06:08:34.501Z,6.57
2018-04-04T06:11:03.634Z,6.47
2018-04-04T06:13:32.745Z,5.85
2018-04-04T06:16:01.834Z,5.55
2018-04-04T06:18:30.937Z,5.30
2018-04-04T06:21:00.104Z,5.53
2018-04-04T06:23:29.165Z,5.63
2018-04-04T06:25:58.272Z,5.65
2018-04-04T06:28:27.470Z,5.23
2018-04-04T06:30:56.614Z,6.55
2018-04-04T06:33:25.701Z,6.20
2018-04-04T06:35:54.822Z,5.45
2018-04-04T06:38:23.897Z,5.37
2018-04-04T06:40:53.969Z,5.00
2018-04-04T06:43:23.048Z,5.20
2018-04-04T06:45:52.126Z,5.27
2018-04-04T06:48:21.199Z,5.20
2018-04-04T06:50:50.278Z,5.10
2018-04-04T06:53:19.402Z,5.67
2018-04-04T06:55:48.636Z,4.90
2018-04-04T06:58:17.714Z,5.03
2018-04-04T07:00:46.833Z,5.30
2018-04-04T07:03:16.659Z,4.70
2018-04-04T07:05:45.725Z,4.83
2018-04-04T07:08:14.830Z,4.50
2018-04-04T07:10:43.902Z,4.83
2018-04-04T07:13:12.971Z,3.93
2018-04-04T07:15:42.819Z,4.10
2018-04-04T07:18:12.657Z,4.23
2018-04-04T07:20:41.730Z,4.10
2018-04-04T07:23:10.854Z,4.57
2018-04-04T07:25:40.702Z,4.40
2018-04-04T07:28:09.769Z,3.50
2018-04-04T07:30:38.867Z,4.60
2018-04-04T07:33:07.945Z,3.30
2018-04-04T07:35:37.034Z,4.30
2018-04-04T07:38:06.188Z,2.90
2018-04-04T07:40:35.290Z,2.57
2018-04-04T07:43:04.364Z,3.60
2018-04-04T07:45:33.466Z,5.10
2018-04-04T07:48:03.311Z,4.13
2018-04-04T07:50:32.409Z,3.50
2018-04-04T07:53:02.247Z,2.50
2018-04-04T07:55:31.313Z,3.70
2018-04-04T07:58:00.493Z,2.87
2018-04-04T08:00:29.568Z,3.30
2018-04-04T08:02:59.438Z,2.57
2018-04-04T08:05:28.526Z,3.60
2018-04-04T08:07:57.598Z,2.70
2018-04-04T08:10:26.670Z,2.30
2018-04-04T08:12:55.835Z,3.30
2018-04-04T08:15:25.678Z,3.67
2018-04-04T08:17:54.789Z,2.70
2018-04-04T08:20:23.879Z,2.50
2018-04-04T08:22:53.713Z,2.37
2018-04-04T08:25:23.578Z,2.60
2018-04-04T08:27:52.696Z,2.17
2018-04-04T08:30:21.887Z,2.43
2018-04-04T08:32:50.978Z,2.20
2018-04-04T08:35:20.814Z,3.67
2018-04-04T08:37:49.934Z,2.93
2018-04-04T08:40:18.992Z,2.13
2018-04-04T08:42:48.205Z,2.30
2018-04-04T08:45:17.309Z,2.50
2018-04-04T08:47:46.383Z,2.80
2018-04-04T08:50:15.461Z,2.97
2018-04-04T08:52:44.598Z,1.97
2018-04-04T08:55:13.734Z,1.87
2018-04-04T08:57:42.894Z,2.37
2018-04-04T09:00:12.733Z,2.90
2018-04-04T09:02:41.811Z,2.67
2018-04-04T09:05:10.882Z,2.10
2018-04-04T09:07:39.961Z,2.27
2018-04-04T09:10:09.794Z,2.33
2018-04-04T09:12:38.854Z,2.50
2018-04-04T09:15:07.943Z,1.70
2018-04-04T09:17:37.018Z,2.40
2018-04-04T09:20:06.921Z,2.47
2018-04-04T09:22:35.998Z,2.43
2018-04-04T09:25:05.072Z,2.30
2018-04-04T09:27:34.142Z,2.10
2018-04-04T09:30:03.222Z,2.50
2018-04-04T09:32:32.291Z,2.27
2018-04-04T09:35:02.175Z,2.27
2018-04-04T09:37:31.249Z,1.77
2018-04-04T09:40:00.433Z,2.23
2018-04-04T09:42:29.510Z,1.97
2018-04-04T09:44:58.582Z,2.60
2018-04-04T09:47:27.654Z,2.70
2018-04-04T09:49:56.777Z,2.00
2018-04-04T09:52:26.626Z,2.60
2018-04-04T09:54:55.725Z,2.43
2018-04-04T09:57:24.897Z,2.40
2018-04-04T09:59:54.734Z,2.87
2018-04-04T10:02:24.561Z,2.00
2018-04-04T10:04:54.418Z,2.47
2018-04-04T10:07:24.473Z,2.00
2018-04-04T10:09:53.540Z,1.90
2018-04-04T10:12:22.642Z,2.30
2018-04-04T10:14:51.790Z,2.40
2018-04-04T10:17:20.855Z,2.63
2018-04-04T10:19:49.921Z,1.77
2018-04-04T10:22:18.989Z,1.90
2018-04-04T10:24:48.078Z,2.37
2018-04-04T10:27:17.223Z,2.60
2018-04-04T10:29:47.058Z,2.43
2018-04-04T10:32:16.946Z,2.70
2018-04-04T10:34:46.017Z,2.40
2018-04-04T10:37:15.086Z,2.33
2018-04-04T10:39:44.153Z,2.00
2018-04-04T10:42:13.228Z,1.93
2018-04-04T10:44:42.301Z,2.10
2018-04-04T10:47:11.375Z,2.40
2018-04-04T10:49:40.762Z,2.67
2018-04-04T10:52:10.638Z,2.20
2018-04-04T10:54:39.738Z,3.07
2018-04-04T10:57:08.834Z,2.37
2018-04-04T10:59:37.970Z,2.13
2018-04-04T11:02:07.073Z,2.10
2018-04-04T11:04:36.200Z,2.03
2018-04-04T11:07:05.383Z,1.70
2018-04-04T11:09:34.450Z,1.93
2018-04-04T11:12:04.282Z,2.20
2018-04-04T11:14:34.145Z,1.63
2018-04-04T11:17:03.310Z,2.10
2018-04-04T11:19:32.583Z,1.80
2018-04-04T11:22:01.650Z,1.97
2018-04-04T11:24:31.485Z,1.60
2018-04-04T11:27:01.314Z,1.83
2018-04-04T11:29:31.169Z,1.30
2018-04-04T11:32:00.297Z,1.53
2018-04-04T11:34:29.437Z,1.50
2018-04-04T11:36:58.498Z,1.70
2018-04-04T11:39:27.570Z,1.80
2018-04-04T11:41:57.439Z,1.63
2018-04-04T11:44:26.509Z,1.30
2018-04-04T11:46:56.340Z,1.83
2018-04-04T11:49:26.172Z,1.70
2018-04-04T11:51:56.006Z,1.37
2018-04-04T11:54:25.833Z,1.60
2018-04-04T11:56:54.902Z,2.47
2018-04-04T11:59:23.966Z,1.90
2018-04-04T12:01:53.057Z,1.77
2018-04-04T12:04:22.941Z,2.10
2018-04-04T12:06:52.019Z,2.23
2018-04-04T12:09:22.037Z,1.97
2018-04-04T12:11:51.872Z,1.60
2018-04-04T12:14:20.945Z,2.40
2018-04-04T12:16:50.056Z,2.00
2018-04-04T12:19:19.122Z,2.20
2018-04-04T12:21:48.190Z,2.13
2018-04-04T12:24:18.022Z,2.33
2018-04-04T12:26:47.897Z,2.53
2018-04-04T12:29:16.977Z,2.13
2018-04-04T12:31:46.085Z,2.03
2018-04-04T12:34:15.150Z,2.77
2018-04-04T12:36:44.222Z,2.23
2018-04-04T12:39:13.324Z,2.50
2018-04-04T12:41:42.450Z,1.87
2018-04-04T12:44:11.534Z,1.90
2018-04-04T12:46:40.667Z,2.80
2018-04-04T12:49:09.747Z,2.20
2018-04-04T12:51:39.578Z,2.07
2018-04-04T12:54:08.671Z,1.50
2018-04-04T12:56:38.644Z,1.87
2018-04-04T12:59:07.750Z,1.50
2018-04-04T13:01:36.851Z,1.53
2018-04-04T13:04:06.755Z,1.70
2018-04-04T13:06:36.591Z,1.47
2018-04-04T13:09:22.478Z,1.40
2018-04-04T13:11:51.613Z,1.50
2018-04-04T13:14:20.838Z,1.20
2018-04-04T13:16:50.657Z,1.63
2018-04-04T13:19:19.885Z,1.67
2018-04-04T13:21:48.960Z,1.87
2018-04-04T13:24:18.418Z,1.70
2018-04-04T13:26:47.554Z,1.20
2018-04-04T13:29:16.613Z,2.03
2018-04-04T13:31:46.453Z,1.57
2018-04-04T13:34:15.526Z,1.00
2018-04-04T13:36:44.590Z,1.17
2018-04-04T13:39:13.664Z,1.43
2018-04-04T13:41:43.493Z,1.97
2018-04-04T13:44:13.327Z,1.67
2018-04-04T13:46:42.413Z,1.23
2018-04-04T13:49:11.483Z,1.20
2018-04-04T13:51:40.627Z,1.63
2018-04-04T13:54:09.699Z,1.60
2018-04-04T13:56:38.776Z,1.43
2018-04-04T13:59:08.605Z,1.93
2018-04-04T14:01:38.429Z,1.37
2018-04-04T14:04:08.310Z,2.07
2018-04-04T14:06:37.386Z,1.70
2018-04-04T14:09:06.465Z,1.47
2018-04-04T14:11:36.404Z,1.40
2018-04-04T14:14:06.278Z,3.50
2018-04-04T14:16:35.350Z,1.77
2018-04-04T14:19:05.222Z,2.27
2018-04-04T14:21:34.290Z,3.13
2018-04-04T14:24:03.483Z,1.80
2018-04-04T14:26:33.321Z,1.83
2018-04-04T14:29:03.181Z,1.80
2018-04-04T14:31:32.294Z,1.20
2018-04-04T14:34:01.367Z,1.40
2018-04-04T14:36:31.202Z,1.90
2018-04-04T14:39:00.278Z,1.73
2018-04-04T14:41:29.346Z,1.50
2018-04-04T14:43:58.418Z,1.77
2018-04-04T14:46:28.262Z,1.50
2018-04-04T14:48:57.354Z,1.90
2018-04-04T14:51:27.210Z,1.70
2018-04-04T14:53:56.278Z,2.20
2018-04-04T14:56:25.373Z,1.77
2018-04-04T14:58:54.442Z,1.60
2018-04-04T15:01:23.529Z,1.60
2018-04-04T15:03:52.602Z,2.13
2018-04-04T15:06:21.727Z,1.60
2018-04-04T15:08:50.846Z,1.50
2018-04-04T15:11:19.925Z,1.53
2018-04-04T15:13:48.990Z,1.67
2018-04-04T15:16:18.070Z,1.23
2018-04-04T15:18:47.142Z,1.43
2018-04-04T15:21:16.330Z,2.50
2018-04-04T15:23:45.394Z,1.63
2018-04-04T15:26:14.453Z,2.27
2018-04-04T15:28:43.578Z,1.93
2018-04-04T15:31:12.621Z,2.00
2018-04-04T15:33:41.714Z,1.63
2018-04-04T15:36:10.795Z,2.13
2018-04-04T15:38:39.974Z,2.63
2018-04-04T15:41:09.805Z,1.70
2018-04-04T15:43:40.725Z,1.57
2018-04-04T15:46:09.797Z,2.70
2018-04-04T15:48:38.919Z,2.00
2018-04-04T15:51:08.035Z,1.90
2018-04-04T15:53:37.201Z,1.97
2018-04-04T15:56:07.029Z,2.30
2018-04-04T15:58:36.867Z,2.37
2018-04-04T16:01:06.788Z,2.10
2018-04-04T16:03:35.834Z,1.90
2018-04-04T16:06:04.910Z,2.10
2018-04-04T16:08:34.799Z,2.43
2018-04-04T16:11:03.868Z,2.10
2018-04-04T16:13:33.090Z,2.77
2018-04-04T16:16:02.180Z,2.30
2018-04-04T16:18:31.246Z,2.70
2018-04-04T16:21:00.329Z,2.53
2018-04-04T16:23:29.403Z,2.60
2018-04-04T16:25:58.477Z,1.90
2018-04-04T16:28:27.561Z,2.63
2018-04-04T16:30:56.629Z,2.57
2018-04-04T16:33:26.466Z,2.70
2018-04-04T16:35:55.534Z,1.60
2018-04-04T16:38:24.602Z,2.17
2018-04-04T16:40:53.693Z,2.60
2018-04-04T16:43:22.857Z,2.27
2018-04-04T16:45:51.930Z,2.30
2018-04-04T16:48:21.046Z,2.60
2018-04-04T16:50:50.112Z,2.20
2018-04-04T16:53:19.943Z,2.13
2018-04-04T16:55:49.786Z,2.53
2018-04-04T16:58:18.910Z,3.43
2018-04-04T17:00:48.070Z,2.57
2018-04-04T17:03:17.136Z,3.30
2018-04-04T17:05:46.206Z,4.30
2018-04-04T17:08:15.269Z,2.73
2018-04-04T17:10:44.400Z,3.13
2018-04-04T17:13:13.475Z,2.67
2018-04-04T17:15:42.589Z,2.40
2018-04-04T17:18:11.647Z,2.70
2018-04-04T17:20:40.761Z,3.00
2018-04-04T17:23:09.857Z,1.90
2018-04-04T17:25:38.917Z,2.17
2018-04-04T17:28:08.052Z,2.43
2018-04-04T17:30:37.197Z,2.70
2018-04-04T17:33:06.311Z,2.77
2018-04-04T17:35:36.154Z,4.30
2018-04-04T17:38:05.990Z,4.23
2018-04-04T17:40:35.822Z,6.30
2018-04-04T17:43:04.926Z,8.80
2018-04-04T17:45:34.757Z,6.40
2018-04-04T17:48:04.589Z,6.60
2018-04-04T17:50:33.656Z,13.67
2018-04-04T17:53:02.790Z,13.53
2018-04-04T17:55:32.670Z,13.87
2018-04-04T17:58:01.815Z,11.67
2018-04-04T18:00:30.893Z,9.60
2018-04-04T18:03:00.055Z,7.00
2018-04-04T18:05:29.174Z,6.33
2018-04-04T18:07:58.245Z,5.10
2018-04-04T18:10:27.371Z,4.87
2018-04-04T18:12:57.205Z,4.50
2018-04-04T18:15:27.049Z,4.63
2018-04-04T18:17:56.175Z,5.67
2018-04-04T18:20:25.347Z,6.80
2018-04-04T18:22:54.458Z,7.50
2018-04-04T18:25:23.562Z,5.57
2018-04-04T18:27:53.401Z,5.13
2018-04-04T18:30:23.310Z,6.43
2018-04-04T18:32:52.389Z,5.57
2018-04-04T18:35:21.467Z,5.90
2018-04-04T18:37:51.342Z,6.20
2018-04-04T18:40:20.414Z,7.90
2018-04-04T18:42:50.877Z,6.20
2018-04-04T18:45:19.995Z,5.57
2018-04-04T18:47:49.094Z,7.60
2018-04-04T18:50:18.167Z,8.30
2018-04-04T18:52:48.009Z,6.60
2018-04-04T18:55:17.113Z,5.03
2018-04-04T18:57:46.965Z,5.10
2018-04-04T19:00:16.151Z,3.80
2018-04-04T19:02:45.509Z,4.37
2018-04-04T19:05:14.650Z,4.57
2018-04-04T19:07:44.528Z,3.73
2018-04-04T19:10:13.611Z,3.97
2018-04-04T19:12:43.452Z,4.07
2018-04-04T19:15:12.708Z,4.20
2018-04-04T19:17:42.072Z,3.70
2018-04-04T19:20:11.988Z,3.27
2018-04-04T19:22:41.067Z,4.13
2018-04-04T19:25:10.147Z,3.10
2018-04-04T19:27:39.226Z,6.00
2018-04-04T19:30:09.071Z,2.17
2018-04-04T19:32:38.906Z,1.10
2018-04-04T19:35:08.140Z,1.00
2018-04-04T19:37:38.131Z,0.80
2018-04-04T19:40:07.970Z,0.80
2018-04-04T19:42:37.808Z,0.90
2018-04-04T19:45:06.946Z,0.70
2018-04-04T19:47:36.015Z,1.00
2018-04-04T19:50:05.849Z,1.00
2018-04-04T19:52:35.719Z,1.00
2018-04-04T19:55:04.790Z,1.10
2018-04-04T19:57:33.857Z,0.90
2018-04-04T20:00:02.925Z,1.00
2018-04-04T20:02:32.002Z,1.03
2018-04-04T20:05:01.066Z,0.80
2018-04-04T20:07:30.134Z,1.00
2018-04-04T20:09:59.975Z,0.80
2018-04-04T20:12:29.171Z,0.90
2018-04-04T20:14:59.058Z,1.30
2018-04-04T20:17:28.125Z,1.17
2018-04-04T20:19:57.307Z,1.13
2018-04-04T20:22:26.485Z,1.20
2018-04-04T20:24:55.554Z,1.37
2018-04-04T20:27:24.629Z,1.30
2018-04-04T20:29:53.706Z,1.77
2018-04-04T20:32:22.810Z,1.43
2018-04-04T20:34:51.902Z,1.67
2018-04-04T20:37:20.965Z,1.33
2018-04-04T20:39:51.099Z,1.87
2018-04-04T20:45:04.769Z,1.27
2018-04-04T20:47:33.842Z,1.20
2018-04-04T20:50:02.948Z,1.17
2018-04-04T20:52:32.287Z,1.40
2018-04-04T20:55:01.390Z,1.43
2018-04-04T20:57:30.514Z,2.17
2018-04-04T20:59:59.583Z,1.43
2018-04-04T21:02:29.552Z,2.43
2018-04-04T21:04:58.513Z,3.60
2018-04-04T21:07:28.377Z,3.23
2018-04-04T21:09:57.445Z,1.97
2018-04-04T21:12:27.282Z,1.80
2018-04-04T21:14:57.145Z,1.57
2018-04-04T21:17:26.277Z,2.10
2018-04-04T21:19:55.349Z,1.50
2018-04-04T21:22:24.414Z,1.57
2018-04-04T21:24:53.481Z,2.33
2018-04-04T21:27:22.554Z,1.90
2018-04-04T21:29:52.525Z,1.83
2018-04-04T21:32:21.730Z,2.23
2018-04-04T21:34:50.841Z,1.70
2018-04-04T21:37:19.954Z,1.90
2018-04-04T21:39:49.038Z,2.50
2018-04-04T21:42:18.866Z,1.40
2018-04-04T21:44:48.806Z,1.63
2018-04-04T21:47:17.873Z,1.20
2018-04-04T21:49:47.285Z,1.27
2018-04-04T21:52:16.346Z,1.33
2018-04-04T21:54:45.514Z,1.50
2018-04-04T21:57:14.582Z,1.40
2018-04-04T21:59:43.768Z,1.73
2018-04-04T22:02:12.841Z,1.70
2018-04-04T22:04:41.956Z,1.30
2018-04-04T22:07:11.794Z,1.47
2018-04-04T22:09:41.686Z,1.20
2018-04-04T22:12:10.795Z,1.33
2018-04-04T22:14:39.921Z,1.63
2018-04-04T22:17:09.023Z,1.67
2018-04-04T22:19:38.097Z,1.57
2018-04-04T22:22:07.210Z,1.85
2018-04-04T22:24:36.355Z,1.50
2018-04-04T22:27:05.430Z,1.90
2018-04-04T22:29:34.500Z,1.10
2018-04-04T22:32:03.569Z,1.40
2018-04-04T22:34:32.650Z,0.93
2018-04-04T22:37:01.725Z,0.97
2018-04-04T22:39:31.592Z,1.50
2018-04-04T22:42:00.654Z,1.00
2018-04-04T22:44:29.725Z,1.13
2018-04-04T22:46:58.927Z,1.33
2018-04-04T22:49:28.005Z,1.10
2018-04-04T22:51:57.866Z,1.40
2018-04-04T22:54:26.940Z,1.27
2018-04-04T22:56:56.803Z,1.27
2018-04-04T22:59:25.868Z,1.10
2018-04-04T23:01:54.997Z,1.03
2018-04-04T23:04:24.847Z,1.53
2018-04-04T23:06:53.913Z,1.60
2018-04-04T23:09:23.186Z,1.30
2018-04-04T23:11:52.270Z,1.47
2018-04-04T23:14:21.438Z,1.95
2018-04-04T23:16:50.518Z,1.77
2018-04-04T23:19:19.593Z,1.63
2018-04-04T23:21:49.437Z,1.93
2018-04-04T23:24:18.869Z,2.13
2018-04-04T23:26:48.214Z,2.03
2018-04-04T23:29:17.368Z,2.30
2018-04-04T23:31:47.209Z,2.60
2018-04-04T23:34:16.278Z,2.90
2018-04-04T23:36:45.346Z,1.90
2018-04-04T23:39:14.494Z,2.53
2018-04-04T23:41:43.626Z,3.03
2018-04-04T23:44:13.623Z,3.40
2018-04-04T23:46:42.702Z,2.80
2018-04-04T23:49:11.778Z,3.00
2018-04-04T23:51:41.621Z,3.08
2018-04-04T23:54:10.754Z,3.28
2018-04-04T23:56:39.869Z,3.45
2018-04-04T23:59:08.950Z,3.75
